createdAt,value
2019-01-11T00:01:12.692Z,3.25
2019-01-11T00:03:43.120Z,3.27
2019-01-11T00:06:13.542Z,3.65
2019-01-11T00:08:43.993Z,4.22
2019-01-11T00:11:14.442Z,4.62
2019-01-11T00:13:44.879Z,5.05
2019-01-11T00:16:15.286Z,5.17
2019-01-11T00:18:45.838Z,4.70
2019-01-11T00:21:16.306Z,5.28
2019-01-11T00:23:46.651Z,4.37
2019-01-11T00:26:17.743Z,4.75
2019-01-11T00:28:48.066Z,5.00
2019-01-11T00:31:18.414Z,5.42
2019-01-11T00:33:48.775Z,7.03
2019-01-11T00:36:19.954Z,6.28
2019-01-11T00:38:50.360Z,6.65
2019-01-11T00:41:20.803Z,7.17
2019-01-11T00:43:51.218Z,10.20
2019-01-11T00:46:21.603Z,7.22
2019-01-11T00:48:52.016Z,9.45
2019-01-11T00:51:22.434Z,8.38
2019-01-11T00:53:52.832Z,8.35
2019-01-11T00:56:23.163Z,8.98
2019-01-11T00:58:53.514Z,9.43
2019-01-11T01:01:23.928Z,9.10
2019-01-11T01:03:54.464Z,9.08
2019-01-11T01:06:24.923Z,9.60
2019-01-11T01:08:55.419Z,9.30
2019-01-11T01:11:25.741Z,8.73
2019-01-11T01:13:56.243Z,8.28
2019-01-11T01:16:27.250Z,8.13
2019-01-11T01:18:57.674Z,8.13
2019-01-11T01:21:28.105Z,8.48
2019-01-11T01:23:59.311Z,10.08
2019-01-11T01:26:29.783Z,8.75
2019-01-11T01:29:00.203Z,8.83
2019-01-11T01:31:30.804Z,8.78
2019-01-11T01:34:01.180Z,9.18
2019-01-11T01:36:31.837Z,9.13
2019-01-11T01:39:02.336Z,9.50
2019-01-11T01:41:32.723Z,9.58
2019-01-11T01:44:03.519Z,9.05
2019-01-11T01:46:34.003Z,10.20
2019-01-11T01:49:04.627Z,8.83
2019-01-11T01:51:35.633Z,9.30
2019-01-11T01:54:06.378Z,8.93
2019-01-11T01:56:36.723Z,8.00
2019-01-11T01:59:07.082Z,8.83
2019-01-11T02:01:37.530Z,8.13
2019-01-11T02:04:07.930Z,8.43
2019-01-11T02:06:38.404Z,7.42
2019-01-11T02:09:09.190Z,7.08
2019-01-11T02:11:39.695Z,6.72
2019-01-11T02:14:11.763Z,7.28
2019-01-11T02:16:42.026Z,6.58
2019-01-11T02:19:12.547Z,6.75
2019-01-11T02:21:44.754Z,6.53
2019-01-11T02:24:15.847Z,6.90
2019-01-11T02:26:46.342Z,7.25
2019-01-11T02:29:16.908Z,6.87
2019-01-11T02:31:47.303Z,7.10
2019-01-11T02:34:17.607Z,7.10
2019-01-11T02:36:48.711Z,6.30
2019-01-11T02:39:19.119Z,6.67
2019-01-11T02:41:52.210Z,6.40
2019-01-11T02:44:22.587Z,6.50
2019-01-11T02:46:52.909Z,5.97
2019-01-11T02:49:23.811Z,6.30
2019-01-11T02:51:55.100Z,6.25
2019-01-11T02:54:25.514Z,6.55
2019-01-11T02:56:55.951Z,5.80
2019-01-11T02:59:26.282Z,6.08
2019-01-11T03:01:56.754Z,6.65
2019-01-11T03:04:27.224Z,6.55
2019-01-11T03:06:57.667Z,6.00
2019-01-11T03:09:28.058Z,6.87
2019-01-11T03:11:58.464Z,6.60
2019-01-11T03:14:28.845Z,7.05
2019-01-11T03:16:59.171Z,6.42
2019-01-11T03:19:29.611Z,6.37
2019-01-11T03:21:59.962Z,6.37
2019-01-11T03:24:30.351Z,6.65
2019-01-11T03:27:00.666Z,6.53
2019-01-11T03:29:30.999Z,6.55
2019-01-11T03:32:01.585Z,6.92
2019-01-11T03:34:33.659Z,6.70
2019-01-11T03:37:04.236Z,6.75
2019-01-11T03:39:37.702Z,6.62
2019-01-11T03:42:10.478Z,6.67
2019-01-11T03:44:40.824Z,7.05
2019-01-11T03:47:11.310Z,6.83
2019-01-11T03:49:41.726Z,6.53
2019-01-11T03:52:12.258Z,7.05
2019-01-11T03:54:44.020Z,6.45
2019-01-11T03:57:14.392Z,6.40
2019-01-11T03:59:44.741Z,6.50
2019-01-11T04:02:15.170Z,6.33
2019-01-11T04:04:45.626Z,5.95
2019-01-11T04:07:16.647Z,5.50
2019-01-11T04:09:47.103Z,5.95
2019-01-11T04:12:17.530Z,5.83
2019-01-11T04:14:47.958Z,5.72
2019-01-11T04:17:18.519Z,5.35
2019-01-11T04:19:48.802Z,5.55
2019-01-11T04:22:30.111Z,6.08
2019-01-11T04:25:04.671Z,5.90
2019-01-11T04:27:35.127Z,5.80
2019-01-11T04:30:12.426Z,6.17
2019-01-11T04:32:42.828Z,6.58
2019-01-11T04:35:13.426Z,6.20
2019-01-11T04:37:43.724Z,7.03
2019-01-11T04:40:15.955Z,6.95
2019-01-11T04:42:46.342Z,6.83
2019-01-11T04:45:17.264Z,7.12
2019-01-11T04:47:47.788Z,7.42
2019-01-11T04:50:19.541Z,8.05
2019-01-11T04:52:52.527Z,8.00
2019-01-11T04:55:23.350Z,8.38
2019-01-11T04:57:53.711Z,8.98
2019-01-11T05:00:24.135Z,7.67
2019-01-11T05:02:54.685Z,8.88
2019-01-11T05:05:25.368Z,8.15
2019-01-11T05:07:55.708Z,8.28
2019-01-11T05:10:26.060Z,8.65
2019-01-11T05:12:58.145Z,8.60
2019-01-11T05:15:28.599Z,8.10
2019-01-11T05:17:59.010Z,8.93
2019-01-11T05:20:29.378Z,7.53
2019-01-11T05:22:59.721Z,8.23
2019-01-11T05:25:30.058Z,8.30
2019-01-11T05:28:00.404Z,7.78
2019-01-11T05:30:31.727Z,7.95
2019-01-11T05:33:01.980Z,8.43
2019-01-11T05:35:32.600Z,7.87
2019-01-11T05:38:03.011Z,8.45
2019-01-11T05:40:33.343Z,8.83
2019-01-11T05:43:04.618Z,7.47
2019-01-11T05:45:35.043Z,8.28
2019-01-11T05:48:05.523Z,8.03
2019-01-11T05:50:35.834Z,7.05
2019-01-11T05:53:06.375Z,8.50
2019-01-11T05:55:44.787Z,7.92
2019-01-11T05:58:44.064Z,7.92
2019-01-11T06:01:15.043Z,8.05
2019-01-11T06:03:45.921Z,8.43
2019-01-11T06:06:16.407Z,8.10
2019-01-11T06:08:46.721Z,8.20
2019-01-11T06:11:17.196Z,7.83
2019-01-11T06:13:47.608Z,8.50
2019-01-11T06:16:18.108Z,6.95
2019-01-11T06:18:48.411Z,8.20
2019-01-11T06:21:19.859Z,7.87
2019-01-11T06:23:50.247Z,6.87
2019-01-11T06:26:20.628Z,6.65
2019-01-11T06:28:50.978Z,6.58
2019-01-11T06:31:21.994Z,6.10
2019-01-11T06:33:52.327Z,6.30
2019-01-11T06:36:23.638Z,5.92
2019-01-11T06:38:54.029Z,5.65
2019-01-11T06:41:26.233Z,5.35
2019-01-11T06:43:56.641Z,5.33
2019-01-11T06:46:27.034Z,5.70
2019-01-11T06:48:57.463Z,5.47
2019-01-11T06:51:27.853Z,5.83
2019-01-11T06:53:58.214Z,5.92
2019-01-11T06:56:28.674Z,5.15
2019-01-11T06:58:59.476Z,5.22
2019-01-11T07:01:29.859Z,5.20
2019-01-11T07:04:00.199Z,5.33
2019-01-11T07:06:30.567Z,4.90
2019-01-11T07:09:01.150Z,5.15
2019-01-11T07:11:32.790Z,4.83
2019-01-11T07:14:03.110Z,5.20
2019-01-11T07:16:33.459Z,5.83
2019-01-11T07:19:03.858Z,5.58
2019-01-11T07:21:34.262Z,5.20
2019-01-11T07:24:04.738Z,5.40
2019-01-11T07:26:35.079Z,5.28
2019-01-11T07:29:05.327Z,5.50
2019-01-11T07:31:36.056Z,5.33
2019-01-11T07:34:06.428Z,5.08
2019-01-11T07:36:37.433Z,5.05
2019-01-11T07:39:18.855Z,5.25
2019-01-11T07:41:50.119Z,5.00
2019-01-11T07:44:20.726Z,4.40
2019-01-11T07:46:56.984Z,4.42
2019-01-11T07:49:27.724Z,4.87
2019-01-11T07:51:58.088Z,3.72
2019-01-11T07:54:28.435Z,3.92
2019-01-11T07:56:58.840Z,3.72
2019-01-11T07:59:29.652Z,3.72
2019-01-11T08:02:00.783Z,3.62
2019-01-11T08:04:31.076Z,3.27
2019-01-11T08:07:01.479Z,4.10
2019-01-11T08:09:31.899Z,3.77
2019-01-11T08:12:02.304Z,3.80
2019-01-11T08:14:32.779Z,2.98
2019-01-11T08:17:03.114Z,3.00
2019-01-11T08:19:33.415Z,2.70
2019-01-11T08:22:04.321Z,2.98
2019-01-11T08:24:34.904Z,2.62
2019-01-11T08:27:05.377Z,2.27
2019-01-11T08:29:35.747Z,2.40
2019-01-11T08:32:06.388Z,2.72
2019-01-11T08:34:36.703Z,3.17
2019-01-11T08:37:07.117Z,3.20
2019-01-11T08:39:37.459Z,2.60
2019-01-11T08:42:07.792Z,2.65
2019-01-11T08:44:38.110Z,4.10
2019-01-11T08:47:08.445Z,2.80
2019-01-11T08:49:38.819Z,2.70
2019-01-11T08:52:09.363Z,2.62
2019-01-11T08:54:39.911Z,2.30
2019-01-11T08:57:10.254Z,3.20
2019-01-11T08:59:41.226Z,2.35
2019-01-11T09:02:27.581Z,2.47
2019-01-11T09:04:57.910Z,2.40
2019-01-11T09:07:28.244Z,2.12
2019-01-11T09:09:58.662Z,2.15
2019-01-11T09:12:28.963Z,2.52
2019-01-11T09:14:59.302Z,2.42
2019-01-11T09:17:30.184Z,2.30
2019-01-11T09:20:00.444Z,3.40
2019-01-11T09:22:30.778Z,3.37
2019-01-11T09:25:01.189Z,3.33
2019-01-11T09:27:31.612Z,2.35
2019-01-11T09:30:01.958Z,2.62
2019-01-11T09:32:33.298Z,2.90
2019-01-11T09:35:04.443Z,2.17
2019-01-11T09:37:35.050Z,2.27
2019-01-11T09:40:06.014Z,2.50
2019-01-11T09:42:36.390Z,2.33
2019-01-11T09:45:07.063Z,3.02
2019-01-11T09:47:37.482Z,2.55
2019-01-11T09:50:08.263Z,1.92
2019-01-11T09:52:38.647Z,2.87
2019-01-11T09:55:09.299Z,2.27
2019-01-11T09:57:39.630Z,3.30
2019-01-11T10:00:13.997Z,2.90
2019-01-11T10:02:49.311Z,4.17
2019-01-11T10:05:19.683Z,2.98
2019-01-11T10:07:50.776Z,3.20
2019-01-11T10:10:21.206Z,3.20
2019-01-11T10:12:51.578Z,3.12
2019-01-11T10:15:22.099Z,2.92
2019-01-11T10:17:52.460Z,3.10
2019-01-11T10:20:22.775Z,3.30
2019-01-11T10:22:53.096Z,3.55
2019-01-11T10:25:23.598Z,3.12
2019-01-11T10:27:54.104Z,3.10
2019-01-11T10:30:24.402Z,2.95
2019-01-11T10:32:54.707Z,2.95
2019-01-11T10:35:25.102Z,2.92
2019-01-11T10:37:55.479Z,2.90
2019-01-11T10:40:25.923Z,3.02
2019-01-11T10:42:56.383Z,2.98
2019-01-11T10:45:26.871Z,3.15
2019-01-11T10:47:58.942Z,3.17
2019-01-11T10:50:29.385Z,2.77
2019-01-11T10:52:59.671Z,2.60
2019-01-11T10:55:30.129Z,2.70
2019-01-11T10:58:00.494Z,2.42
2019-01-11T11:00:31.577Z,2.72
2019-01-11T11:03:01.883Z,2.85
2019-01-11T11:05:32.316Z,3.08
2019-01-11T11:08:03.598Z,2.45
2019-01-11T11:10:33.947Z,2.95
2019-01-11T11:13:04.366Z,2.52
2019-01-11T11:15:35.334Z,2.80
2019-01-11T11:18:06.114Z,2.75
2019-01-11T11:20:36.463Z,2.80
2019-01-11T11:23:06.713Z,3.05
2019-01-11T11:25:37.316Z,3.08
2019-01-11T11:28:07.626Z,2.17
2019-01-11T11:30:54.853Z,2.55
2019-01-11T11:33:25.322Z,3.42
2019-01-11T11:35:55.686Z,2.80
2019-01-11T11:38:25.954Z,3.20
2019-01-11T11:40:56.359Z,2.58
2019-01-11T11:43:26.624Z,3.55
2019-01-11T11:45:57.022Z,4.00
2019-01-11T11:48:27.373Z,3.02
2019-01-11T11:50:57.726Z,3.50
2019-01-11T11:53:28.028Z,3.60
2019-01-11T11:55:58.739Z,3.33
2019-01-11T11:58:29.079Z,2.98
2019-01-11T12:01:00.282Z,3.00
2019-01-11T12:03:30.636Z,2.62
2019-01-11T12:06:01.032Z,3.00
2019-01-11T12:08:31.313Z,2.92
2019-01-11T12:11:01.810Z,3.37
2019-01-11T12:13:34.582Z,2.52
2019-01-11T12:16:04.193Z,3.75
2019-01-11T12:18:34.547Z,3.02
2019-01-11T12:21:05.031Z,3.00
2019-01-11T12:23:35.562Z,2.17
2019-01-11T12:26:06.299Z,3.52
2019-01-11T12:28:36.663Z,2.65
2019-01-11T12:31:07.236Z,3.55
2019-01-11T12:33:37.520Z,3.12
2019-01-11T12:36:07.842Z,3.45
2019-01-11T12:38:38.396Z,3.15
2019-01-11T12:41:08.805Z,3.62
2019-01-11T12:43:39.151Z,3.47
2019-01-11T12:46:09.444Z,3.65
2019-01-11T12:48:39.778Z,2.58
2019-01-11T12:51:10.145Z,3.08
2019-01-11T12:53:40.507Z,3.20
2019-01-11T12:56:10.826Z,2.90
2019-01-11T12:58:41.138Z,2.80
2019-01-11T13:01:12.382Z,3.25
2019-01-11T13:03:42.759Z,2.85
2019-01-11T13:06:13.119Z,3.10
2019-01-11T13:08:43.495Z,2.75
2019-01-11T13:11:13.954Z,2.25
2019-01-11T13:13:44.292Z,2.55
2019-01-11T13:16:14.868Z,2.77
2019-01-11T13:18:45.215Z,2.72
2019-01-11T13:21:15.776Z,2.42
2019-01-11T13:23:46.187Z,2.87
2019-01-11T13:26:16.507Z,2.60
2019-01-11T13:28:46.900Z,2.50
2019-01-11T13:31:17.255Z,2.40
2019-01-11T13:33:47.588Z,2.67
2019-01-11T13:36:20.998Z,3.22
2019-01-11T13:38:51.611Z,3.17
2019-01-11T13:41:22.379Z,3.25
2019-01-11T13:43:52.752Z,3.00
2019-01-11T13:46:23.925Z,2.77
2019-01-11T13:48:54.227Z,3.42
2019-01-11T13:51:24.628Z,3.75
2019-01-11T13:53:54.965Z,3.62
2019-01-11T13:56:25.308Z,3.22
2019-01-11T13:58:55.812Z,3.52
2019-01-11T14:01:26.152Z,3.15
2019-01-11T14:03:56.891Z,3.35
2019-01-11T14:06:27.340Z,3.52
2019-01-11T14:08:57.972Z,3.33
2019-01-11T14:11:28.258Z,3.60
2019-01-11T14:13:58.604Z,4.40
2019-01-11T14:16:29.659Z,3.27
2019-01-11T14:18:59.963Z,2.75
2019-01-11T14:21:30.287Z,3.27
2019-01-11T14:24:00.647Z,3.10
2019-01-11T14:26:31.151Z,3.83
2019-01-11T14:29:01.551Z,2.80
2019-01-11T14:31:32.289Z,3.27
2019-01-11T14:34:02.703Z,3.80
2019-01-11T14:36:33.073Z,2.95
2019-01-11T14:39:05.804Z,3.55
2019-01-11T14:41:36.682Z,4.03
2019-01-11T14:44:07.643Z,3.75
2019-01-11T14:46:38.112Z,3.05
2019-01-11T14:49:09.122Z,3.08
2019-01-11T14:51:39.679Z,2.90
2019-01-11T14:54:10.089Z,2.90
2019-01-11T14:56:40.762Z,2.55
2019-01-11T14:59:11.242Z,2.98
2019-01-11T15:01:41.607Z,3.00
2019-01-11T15:04:11.970Z,2.72
2019-01-11T15:06:42.296Z,2.60
2019-01-11T15:09:12.736Z,2.42
2019-01-11T15:11:43.318Z,2.80
2019-01-11T15:14:13.737Z,2.72
2019-01-11T15:16:44.385Z,2.40
2019-01-11T15:19:15.725Z,2.50
2019-01-11T15:21:46.364Z,2.90
2019-01-11T15:24:16.899Z,2.85
2019-01-11T15:26:47.301Z,2.95
2019-01-11T15:29:17.631Z,2.22
2019-01-11T15:31:49.653Z,2.62
2019-01-11T15:34:20.079Z,3.17
2019-01-11T15:36:50.519Z,40.83
2019-01-11T15:39:21.003Z,58.05
2019-01-11T15:41:51.616Z,37.08
2019-01-11T15:44:21.957Z,36.25
2019-01-11T15:46:52.627Z,35.00
2019-01-11T15:49:23.043Z,41.20
2019-01-11T15:51:53.478Z,39.70
2019-01-11T15:54:23.957Z,87.08
2019-01-11T15:56:54.270Z,13.83
2019-01-11T15:59:24.675Z,8.60
2019-01-11T16:01:55.421Z,21.45
2019-01-11T16:04:26.166Z,16.40
2019-01-11T16:06:56.649Z,32.75
2019-01-11T16:10:01.573Z,13.10
2019-01-11T16:13:21.776Z,14.50
2019-01-11T16:16:21.935Z,78.25
2019-01-11T16:18:54.062Z,40.28
2019-01-11T16:21:25.192Z,49.77
2019-01-11T16:23:55.595Z,28.50
2019-01-11T16:26:26.119Z,90.90
2019-01-11T16:28:56.519Z,45.20
2019-01-11T16:31:27.014Z,12.50
2019-01-11T16:33:57.418Z,12.35
2019-01-11T16:36:27.750Z,5.30
2019-01-11T16:38:58.186Z,7.22
2019-01-11T16:41:29.280Z,4.85
2019-01-11T16:43:59.588Z,3.45
2019-01-11T16:46:29.946Z,4.00
2019-01-11T16:49:00.290Z,4.05
2019-01-11T16:51:30.636Z,3.37
2019-01-11T16:54:01.108Z,4.03
2019-01-11T16:56:31.404Z,3.92
2019-01-11T16:59:01.749Z,2.83
2019-01-11T17:01:32.180Z,3.70
2019-01-11T17:04:02.562Z,3.90
2019-01-11T17:06:33.205Z,3.62
2019-01-11T17:09:05.212Z,4.00
2019-01-11T17:11:36.346Z,4.20
2019-01-11T17:14:07.104Z,3.70
2019-01-11T17:16:38.277Z,4.42
2019-01-11T17:19:09.423Z,3.77
2019-01-11T17:21:40.923Z,3.25
2019-01-11T17:24:11.557Z,3.27
2019-01-11T17:26:41.873Z,3.35
2019-01-11T17:29:12.180Z,4.00
2019-01-11T17:31:42.513Z,3.27
2019-01-11T17:34:12.978Z,3.25
2019-01-11T17:36:43.288Z,2.98
2019-01-11T17:39:13.639Z,24.72
2019-01-11T17:41:44.088Z,30.20
2019-01-11T17:44:14.455Z,17.57
2019-01-11T17:46:45.543Z,32.93
2019-01-11T17:49:16.003Z,30.70
2019-01-11T17:51:46.412Z,20.02
2019-01-11T17:54:16.839Z,11.15
2019-01-11T17:56:47.375Z,5.55
2019-01-11T17:59:17.710Z,2.75
2019-01-11T18:01:48.011Z,2.65
2019-01-11T18:04:18.358Z,2.70
2019-01-11T18:06:48.671Z,3.02
2019-01-11T18:09:18.997Z,3.65
2019-01-11T18:11:49.323Z,2.98
2019-01-11T18:14:19.682Z,2.40
2019-01-11T18:16:50.078Z,2.52
2019-01-11T18:19:20.825Z,2.60
2019-01-11T18:21:52.188Z,2.17
2019-01-11T18:24:23.581Z,3.12
2019-01-11T18:26:54.031Z,1.82
2019-01-11T18:29:25.505Z,2.45
2019-01-11T18:31:55.820Z,2.52
2019-01-11T18:34:26.558Z,4.22
2019-01-11T18:36:56.919Z,3.12
2019-01-11T18:39:28.588Z,4.65
2019-01-11T18:41:59.048Z,4.40
2019-01-11T18:44:29.531Z,5.20
2019-01-11T18:46:59.854Z,8.18
2019-01-11T18:49:30.547Z,5.70
2019-01-11T18:52:00.863Z,4.20
2019-01-11T18:54:31.301Z,8.78
2019-01-11T18:57:03.431Z,5.87
2019-01-11T18:59:33.831Z,5.58
2019-01-11T19:02:04.321Z,4.35
2019-01-11T19:04:34.718Z,5.08
2019-01-11T19:07:05.294Z,4.05
2019-01-11T19:09:35.714Z,5.78
2019-01-11T19:12:06.108Z,4.55
2019-01-11T19:14:36.475Z,6.90
2019-01-11T19:17:07.255Z,3.70
2019-01-11T19:19:37.763Z,3.10
2019-01-11T19:22:09.756Z,3.52
2019-01-11T19:24:40.236Z,3.20
2019-01-11T19:27:10.645Z,2.90
2019-01-11T19:29:41.072Z,3.12
2019-01-11T19:32:11.445Z,3.62
2019-01-11T19:34:41.916Z,2.37
2019-01-11T19:37:13.270Z,2.58
2019-01-11T19:39:44.106Z,2.37
2019-01-11T19:42:14.469Z,2.42
2019-01-11T19:44:44.783Z,2.55
2019-01-11T19:47:15.218Z,3.20
2019-01-11T19:49:45.572Z,3.10
2019-01-11T19:52:16.042Z,2.90
2019-01-11T19:54:46.435Z,2.58
2019-01-11T19:57:17.795Z,2.80
2019-01-11T19:59:49.126Z,3.22
2019-01-11T20:02:20.192Z,3.30
2019-01-11T20:04:51.092Z,3.27
2019-01-11T20:07:21.477Z,2.90
2019-01-11T20:09:52.255Z,3.08
2019-01-11T20:12:22.932Z,2.80
2019-01-11T20:14:53.483Z,3.17
2019-01-11T20:17:24.540Z,3.00
2019-01-11T20:19:55.748Z,4.10
2019-01-11T20:22:26.955Z,3.15
2019-01-11T20:24:58.491Z,4.03
2019-01-11T20:27:28.992Z,3.12
2019-01-11T20:29:59.432Z,3.05
2019-01-11T20:32:29.919Z,3.60
2019-01-11T20:35:00.269Z,2.85
2019-01-11T20:37:33.268Z,3.85
2019-01-11T20:40:04.557Z,3.17
2019-01-11T20:42:36.716Z,3.17
2019-01-11T20:45:08.913Z,3.50
2019-01-11T20:47:39.521Z,4.58
2019-01-11T20:50:12.691Z,3.83
2019-01-11T20:52:43.102Z,2.80
2019-01-11T20:55:13.568Z,3.27
2019-01-11T20:57:44.244Z,2.90
2019-01-11T21:00:18.322Z,2.77
2019-01-11T21:02:49.846Z,2.77
2019-01-11T21:05:21.091Z,3.08
2019-01-11T21:07:51.579Z,2.40
2019-01-11T21:10:22.085Z,2.98
2019-01-11T21:12:53.279Z,2.47
2019-01-11T21:15:24.156Z,3.27
2019-01-11T21:17:56.228Z,3.05
2019-01-11T21:20:26.956Z,3.33
2019-01-11T21:22:57.709Z,3.02
2019-01-11T21:25:28.099Z,2.42
2019-01-11T21:27:58.628Z,2.50
2019-01-11T21:30:30.755Z,2.20
2019-01-11T21:33:02.313Z,1.67
2019-01-11T21:35:33.107Z,1.80
2019-01-11T21:38:03.648Z,2.00
2019-01-11T21:40:34.045Z,2.02
2019-01-11T21:43:06.297Z,2.10
2019-01-11T21:45:36.744Z,1.80
2019-01-11T21:48:07.204Z,1.80
2019-01-11T21:50:37.551Z,2.05
2019-01-11T21:53:07.983Z,1.55
2019-01-11T21:55:38.799Z,1.90
2019-01-11T21:58:09.193Z,2.25
2019-01-11T22:00:41.823Z,2.37
2019-01-11T22:03:22.024Z,2.70
2019-01-11T22:05:54.176Z,3.37
2019-01-11T22:08:24.672Z,3.10
2019-01-11T22:10:55.494Z,2.80
2019-01-11T22:13:25.900Z,2.62
2019-01-11T22:15:56.385Z,2.58
2019-01-11T22:18:26.772Z,2.10
2019-01-11T22:20:57.444Z,2.37
2019-01-11T22:23:27.873Z,1.70
2019-01-11T22:26:01.216Z,1.98
2019-01-11T22:28:32.661Z,2.10
2019-01-11T22:31:04.396Z,2.60
2019-01-11T22:33:34.790Z,1.87
2019-01-11T22:36:07.247Z,1.95
2019-01-11T22:38:37.626Z,1.80
2019-01-11T22:41:08.119Z,1.50
2019-01-11T22:43:38.571Z,1.75
2019-01-11T22:46:09.211Z,1.60
2019-01-11T22:48:40.044Z,1.92
2019-01-11T22:51:11.159Z,2.00
2019-01-11T22:53:41.891Z,1.85
2019-01-11T22:56:12.395Z,2.00
2019-01-11T22:58:42.917Z,1.67
2019-01-11T23:01:40.477Z,1.90
2019-01-11T23:04:12.014Z,1.70
2019-01-11T23:07:29.041Z,2.25
2019-01-11T23:10:39.939Z,2.25
2019-01-11T23:13:13.756Z,2.10
2019-01-11T23:16:00.163Z,1.77
2019-01-11T23:18:31.956Z,1.85
2019-01-11T23:21:07.259Z,1.60
2019-01-11T23:23:37.698Z,1.62
2019-01-11T23:26:08.158Z,2.30
2019-01-11T23:28:38.631Z,1.80
2019-01-11T23:31:09.243Z,1.95
2019-01-11T23:33:39.551Z,1.90
2019-01-11T23:36:09.976Z,1.67
2019-01-11T23:38:40.327Z,2.42
2019-01-11T23:41:10.696Z,2.20
2019-01-11T23:43:41.143Z,2.77
2019-01-11T23:46:11.898Z,2.22
2019-01-11T23:48:43.079Z,2.27
2019-01-11T23:51:13.567Z,2.22
2019-01-11T23:53:43.943Z,2.55
2019-01-11T23:56:14.375Z,2.65
2019-01-11T23:58:45.649Z,2.62
